sensor_id;sensor_type;location;lat;lon;timestamp;temperature;humidity
5560;DHT22;2803;47.916;8.074;2023-06-19T00:01:32;21.90;99.90
5560;DHT22;2803;47.916;8.074;2023-06-19T00:03:59;21.80;99.90
5560;DHT22;2803;47.916;8.074;2023-06-19T00:06:25;22.00;99.90
5560;DHT22;2803;47.916;8.074;2023-06-19T00:08:52;22.10;99.90
5560;DHT22;2803;47.916;8.074;2023-06-19T00:11:19;22.10;99.90
5560;DHT22;2803;47.916;8.074;2023-06-19T00:13:45;22.20;99.90
5560;DHT22;2803;47.916;8.074;2023-06-19T00:16:12;22.10;99.90
5560;DHT22;2803;47.916;8.074;2023-06-19T00:18:40;21.10;99.90
5560;DHT22;2803;47.916;8.074;2023-06-19T00:21:07;20.90;99.90
5560;DHT22;2803;47.916;8.074;2023-06-19T00:23:34;20.80;99.90
5560;DHT22;2803;47.916;8.074;2023-06-19T00:26:01;20.70;99.90
5560;DHT22;2803;47.916;8.074;2023-06-19T00:28:28;20.50;99.90
5560;DHT22;2803;47.916;8.074;2023-06-19T00:30:55;20.70;99.90
5560;DHT22;2803;47.916;8.074;2023-06-19T00:33:22;20.50;99.90
5560;DHT22;2803;47.916;8.074;2023-06-19T00:35:51;20.70;99.90
5560;DHT22;2803;47.916;8.074;2023-06-19T00:38:19;21.10;99.90
5560;DHT22;2803;47.916;8.074;2023-06-19T00:40:46;21.40;99.90
5560;DHT22;2803;47.916;8.074;2023-06-19T00:43:13;21.40;99.90
5560;DHT22;2803;47.916;8.074;2023-06-19T00:45:39;21.60;99.90
5560;DHT22;2803;47.916;8.074;2023-06-19T00:48:06;21.80;99.90
5560;DHT22;2803;47.916;8.074;2023-06-19T00:50:33;22.00;99.90
5560;DHT22;2803;47.916;8.074;2023-06-19T00:53:03;22.10;99.90
5560;DHT22;2803;47.916;8.074;2023-06-19T00:55:30;22.20;99.90
5560;DHT22;2803;47.916;8.074;2023-06-19T00:57:59;22.40;99.90
5560;DHT22;2803;47.916;8.074;2023-06-19T01:00:26;22.30;99.90
5560;DHT22;2803;47.916;8.074;2023-06-19T01:02:53;22.60;99.90
5560;DHT22;2803;47.916;8.074;2023-06-19T01:05:19;22.70;99.90
5560;DHT22;2803;47.916;8.074;2023-06-19T01:07:52;22.60;99.90
5560;DHT22;2803;47.916;8.074;2023-06-19T01:10:27;22.60;99.90
5560;DHT22;2803;47.916;8.074;2023-06-19T01:12:58;22.70;99.90
5560;DHT22;2803;47.916;8.074;2023-06-19T01:15:25;22.50;99.90
5560;DHT22;2803;47.916;8.074;2023-06-19T01:17:53;22.60;99.90
5560;DHT22;2803;47.916;8.074;2023-06-19T01:20:20;22.70;99.90
5560;DHT22;2803;47.916;8.074;2023-06-19T01:22:48;22.90;99.90
5560;DHT22;2803;47.916;8.074;2023-06-19T01:25:15;22.90;99.90
5560;DHT22;2803;47.916;8.074;2023-06-19T01:27:42;22.60;99.90
5560;DHT22;2803;47.916;8.074;2023-06-19T01:30:10;22.60;99.90
5560;DHT22;2803;47.916;8.074;2023-06-19T01:32:44;22.60;99.90
5560;DHT22;2803;47.916;8.074;2023-06-19T01:35:15;22.70;99.90
5560;DHT22;2803;47.916;8.074;2023-06-19T01:37:44;22.70;99.90
5560;DHT22;2803;47.916;8.074;2023-06-19T01:40:12;22.80;99.90
5560;DHT22;2803;47.916;8.074;2023-06-19T01:42:41;22.80;99.90
5560;DHT22;2803;47.916;8.074;2023-06-19T01:45:08;22.80;99.90
5560;DHT22;2803;47.916;8.074;2023-06-19T01:47:35;22.80;99.90
5560;DHT22;2803;47.916;8.074;2023-06-19T01:50:02;22.80;99.90
5560;DHT22;2803;47.916;8.074;2023-06-19T01:52:29;22.80;99.90
5560;DHT22;2803;47.916;8.074;2023-06-19T01:54:56;22.90;99.90
5560;DHT22;2803;47.916;8.074;2023-06-19T01:57:24;22.90;99.90
5560;DHT22;2803;47.916;8.074;2023-06-19T01:59:51;22.80;99.90
5560;DHT22;2803;47.916;8.074;2023-06-19T02:02:18;22.80;99.90
5560;DHT22;2803;47.916;8.074;2023-06-19T02:04:44;22.80;99.90
5560;DHT22;2803;47.916;8.074;2023-06-19T02:07:11;22.90;99.90
5560;DHT22;2803;47.916;8.074;2023-06-19T02:09:38;22.80;99.90
5560;DHT22;2803;47.916;8.074;2023-06-19T02:12:05;22.70;99.90
5560;DHT22;2803;47.916;8.074;2023-06-19T02:14:33;22.70;99.90
5560;DHT22;2803;47.916;8.074;2023-06-19T02:17:00;22.70;99.90
5560;DHT22;2803;47.916;8.074;2023-06-19T02:19:26;22.70;99.90
5560;DHT22;2803;47.916;8.074;2023-06-19T02:21:53;22.70;99.90
5560;DHT22;2803;47.916;8.074;2023-06-19T02:24:20;22.60;99.90
5560;DHT22;2803;47.916;8.074;2023-06-19T02:26:46;22.50;99.90
5560;DHT22;2803;47.916;8.074;2023-06-19T02:29:13;22.50;99.90
5560;DHT22;2803;47.916;8.074;2023-06-19T02:31:41;22.50;99.90
5560;DHT22;2803;47.916;8.074;2023-06-19T02:34:08;22.50;99.90
5560;DHT22;2803;47.916;8.074;2023-06-19T02:36:35;22.50;99.90
5560;DHT22;2803;47.916;8.074;2023-06-19T02:39:05;22.30;99.90
5560;DHT22;2803;47.916;8.074;2023-06-19T02:41:32;22.30;99.90
5560;DHT22;2803;47.916;8.074;2023-06-19T02:43:58;22.20;99.90
5560;DHT22;2803;47.916;8.074;2023-06-19T02:46:25;22.20;99.90
5560;DHT22;2803;47.916;8.074;2023-06-19T02:48:53;22.20;99.90
5560;DHT22;2803;47.916;8.074;2023-06-19T02:51:19;22.10;99.90
5560;DHT22;2803;47.916;8.074;2023-06-19T02:53:46;22.00;99.90
5560;DHT22;2803;47.916;8.074;2023-06-19T02:56:13;22.00;99.90
5560;DHT22;2803;47.916;8.074;2023-06-19T02:58:39;21.90;99.90
5560;DHT22;2803;47.916;8.074;2023-06-19T03:01:07;21.90;99.90
5560;DHT22;2803;47.916;8.074;2023-06-19T03:03:34;21.90;99.90
5560;DHT22;2803;47.916;8.074;2023-06-19T03:06:05;21.90;99.90
5560;DHT22;2803;47.916;8.074;2023-06-19T03:08:33;21.90;99.90
5560;DHT22;2803;47.916;8.074;2023-06-19T03:10:59;21.90;99.90
5560;DHT22;2803;47.916;8.074;2023-06-19T03:13:26;21.80;99.90
5560;DHT22;2803;47.916;8.074;2023-06-19T03:15:53;21.80;99.90
5560;DHT22;2803;47.916;8.074;2023-06-19T03:18:19;21.70;99.90
5560;DHT22;2803;47.916;8.074;2023-06-19T03:20:46;21.70;99.90
5560;DHT22;2803;47.916;8.074;2023-06-19T03:23:14;21.70;99.90
5560;DHT22;2803;47.916;8.074;2023-06-19T03:25:41;21.60;99.90
5560;DHT22;2803;47.916;8.074;2023-06-19T03:28:08;21.70;99.90
5560;DHT22;2803;47.916;8.074;2023-06-19T03:30:35;21.70;99.90
5560;DHT22;2803;47.916;8.074;2023-06-19T03:33:01;21.50;99.90
5560;DHT22;2803;47.916;8.074;2023-06-19T03:35:28;21.40;99.90
5560;DHT22;2803;47.916;8.074;2023-06-19T03:37:55;21.50;99.90
5560;DHT22;2803;47.916;8.074;2023-06-19T03:40:23;21.10;99.90
5560;DHT22;2803;47.916;8.074;2023-06-19T03:42:49;21.10;99.90
5560;DHT22;2803;47.916;8.074;2023-06-19T03:45:16;21.20;99.90
5560;DHT22;2803;47.916;8.074;2023-06-19T03:47:43;21.30;99.90
5560;DHT22;2803;47.916;8.074;2023-06-19T03:50:09;21.30;99.90
5560;DHT22;2803;47.916;8.074;2023-06-19T03:52:36;21.40;99.90
5560;DHT22;2803;47.916;8.074;2023-06-19T03:55:03;21.50;99.90
5560;DHT22;2803;47.916;8.074;2023-06-19T03:57:31;21.50;99.90
5560;DHT22;2803;47.916;8.074;2023-06-19T03:59:58;21.50;99.90
5560;DHT22;2803;47.916;8.074;2023-06-19T04:02:25;21.40;99.90
5560;DHT22;2803;47.916;8.074;2023-06-19T04:04:51;21.30;99.90
5560;DHT22;2803;47.916;8.074;2023-06-19T04:07:18;21.40;99.90
5560;DHT22;2803;47.916;8.074;2023-06-19T04:09:45;21.50;99.90
5560;DHT22;2803;47.916;8.074;2023-06-19T04:12:11;21.50;99.90
5560;DHT22;2803;47.916;8.074;2023-06-19T04:14:39;21.60;99.90
5560;DHT22;2803;47.916;8.074;2023-06-19T04:17:06;21.50;99.90
5560;DHT22;2803;47.916;8.074;2023-06-19T04:19:33;21.60;99.90
5560;DHT22;2803;47.916;8.074;2023-06-19T04:21:59;21.60;99.90
5560;DHT22;2803;47.916;8.074;2023-06-19T04:24:26;21.60;99.90
5560;DHT22;2803;47.916;8.074;2023-06-19T04:26:53;21.60;99.90
5560;DHT22;2803;47.916;8.074;2023-06-19T04:29:20;21.60;99.90
5560;DHT22;2803;47.916;8.074;2023-06-19T04:31:48;21.70;99.90
5560;DHT22;2803;47.916;8.074;2023-06-19T04:34:16;21.50;99.90
5560;DHT22;2803;47.916;8.074;2023-06-19T04:36:46;21.60;99.90
5560;DHT22;2803;47.916;8.074;2023-06-19T04:39:13;21.60;99.90
5560;DHT22;2803;47.916;8.074;2023-06-19T04:41:40;21.40;99.90
5560;DHT22;2803;47.916;8.074;2023-06-19T04:44:09;21.20;99.90
5560;DHT22;2803;47.916;8.074;2023-06-19T04:46:37;21.30;99.90
5560;DHT22;2803;47.916;8.074;2023-06-19T04:49:05;21.10;99.90
5560;DHT22;2803;47.916;8.074;2023-06-19T04:51:32;21.30;99.90
5560;DHT22;2803;47.916;8.074;2023-06-19T04:54:00;21.60;99.90
5560;DHT22;2803;47.916;8.074;2023-06-19T04:56:27;21.70;99.90
5560;DHT22;2803;47.916;8.074;2023-06-19T04:58:55;21.70;99.90
5560;DHT22;2803;47.916;8.074;2023-06-19T05:01:26;21.80;99.90
5560;DHT22;2803;47.916;8.074;2023-06-19T05:03:54;21.40;99.90
5560;DHT22;2803;47.916;8.074;2023-06-19T05:06:23;21.50;99.90
5560;DHT22;2803;47.916;8.074;2023-06-19T05:08:50;21.50;99.90
5560;DHT22;2803;47.916;8.074;2023-06-19T05:11:17;21.80;99.90
5560;DHT22;2803;47.916;8.074;2023-06-19T05:13:44;21.20;99.90
5560;DHT22;2803;47.916;8.074;2023-06-19T05:16:11;20.80;99.90
5560;DHT22;2803;47.916;8.074;2023-06-19T05:18:41;20.80;99.90
5560;DHT22;2803;47.916;8.074;2023-06-19T05:21:09;21.10;99.90
5560;DHT22;2803;47.916;8.074;2023-06-19T05:23:37;21.40;99.90
5560;DHT22;2803;47.916;8.074;2023-06-19T05:26:04;21.70;99.90
5560;DHT22;2803;47.916;8.074;2023-06-19T05:28:30;21.40;99.90
5560;DHT22;2803;47.916;8.074;2023-06-19T05:30:57;21.70;99.90
5560;DHT22;2803;47.916;8.074;2023-06-19T05:33:24;21.90;99.90
5560;DHT22;2803;47.916;8.074;2023-06-19T05:35:50;22.00;99.90
5560;DHT22;2803;47.916;8.074;2023-06-19T05:38:19;22.30;99.90
5560;DHT22;2803;47.916;8.074;2023-06-19T05:40:47;22.40;99.90
5560;DHT22;2803;47.916;8.074;2023-06-19T05:43:14;22.50;99.90
5560;DHT22;2803;47.916;8.074;2023-06-19T05:45:40;22.50;99.90
5560;DHT22;2803;47.916;8.074;2023-06-19T05:48:07;22.60;99.90
5560;DHT22;2803;47.916;8.074;2023-06-19T05:50:34;22.40;99.90
5560;DHT22;2803;47.916;8.074;2023-06-19T05:53:00;22.60;99.90
5560;DHT22;2803;47.916;8.074;2023-06-19T05:55:27;22.70;99.90
5560;DHT22;2803;47.916;8.074;2023-06-19T05:57:55;22.50;99.90
5560;DHT22;2803;47.916;8.074;2023-06-19T06:00:22;22.70;99.90
5560;DHT22;2803;47.916;8.074;2023-06-19T06:02:49;22.70;99.90
5560;DHT22;2803;47.916;8.074;2023-06-19T06:05:17;22.80;99.90
5560;DHT22;2803;47.916;8.074;2023-06-19T06:07:44;23.00;99.90
5560;DHT22;2803;47.916;8.074;2023-06-19T06:10:11;23.20;99.90
5560;DHT22;2803;47.916;8.074;2023-06-19T06:12:38;23.30;99.90
5560;DHT22;2803;47.916;8.074;2023-06-19T06:15:06;23.10;99.90
5560;DHT22;2803;47.916;8.074;2023-06-19T06:17:33;23.00;99.90
5560;DHT22;2803;47.916;8.074;2023-06-19T06:19:59;23.00;99.90
5560;DHT22;2803;47.916;8.074;2023-06-19T06:22:26;23.10;99.90
5560;DHT22;2803;47.916;8.074;2023-06-19T06:24:53;23.30;99.90
5560;DHT22;2803;47.916;8.074;2023-06-19T06:27:20;23.30;99.90
5560;DHT22;2803;47.916;8.074;2023-06-19T06:29:46;23.50;99.90
5560;DHT22;2803;47.916;8.074;2023-06-19T06:32:14;23.20;99.90
5560;DHT22;2803;47.916;8.074;2023-06-19T06:34:41;23.20;99.90
5560;DHT22;2803;47.916;8.074;2023-06-19T06:37:07;23.40;99.90
5560;DHT22;2803;47.916;8.074;2023-06-19T06:39:34;23.40;99.90
5560;DHT22;2803;47.916;8.074;2023-06-19T06:42:01;23.40;99.90
5560;DHT22;2803;47.916;8.074;2023-06-19T06:44:27;23.50;99.90
5560;DHT22;2803;47.916;8.074;2023-06-19T06:46:54;23.60;99.90
5560;DHT22;2803;47.916;8.074;2023-06-19T06:49:22;24.00;99.90
5560;DHT22;2803;47.916;8.074;2023-06-19T06:51:49;24.20;99.90
5560;DHT22;2803;47.916;8.074;2023-06-19T06:54:15;24.50;99.90
5560;DHT22;2803;47.916;8.074;2023-06-19T06:56:42;24.50;99.90
5560;DHT22;2803;47.916;8.074;2023-06-19T06:59:13;24.60;99.90
5560;DHT22;2803;47.916;8.074;2023-06-19T07:01:41;24.60;99.90
5560;DHT22;2803;47.916;8.074;2023-06-19T07:04:08;24.60;99.90
5560;DHT22;2803;47.916;8.074;2023-06-19T07:06:36;24.30;99.90
5560;DHT22;2803;47.916;8.074;2023-06-19T07:09:02;24.20;99.90
5560;DHT22;2803;47.916;8.074;2023-06-19T07:11:29;24.00;99.90
5560;DHT22;2803;47.916;8.074;2023-06-19T07:13:55;23.80;99.90
5560;DHT22;2803;47.916;8.074;2023-06-19T07:16:22;23.80;99.90
5560;DHT22;2803;47.916;8.074;2023-06-19T07:18:48;23.90;99.90
5560;DHT22;2803;47.916;8.074;2023-06-19T07:21:15;24.40;99.90
5560;DHT22;2803;47.916;8.074;2023-06-19T07:23:45;24.60;99.90
5560;DHT22;2803;47.916;8.074;2023-06-19T07:26:14;24.30;99.90
5560;DHT22;2803;47.916;8.074;2023-06-19T07:28:40;24.20;99.90
5560;DHT22;2803;47.916;8.074;2023-06-19T07:31:07;24.90;99.90
5560;DHT22;2803;47.916;8.074;2023-06-19T07:33:34;25.40;99.90
5560;DHT22;2803;47.916;8.074;2023-06-19T07:36:01;25.70;99.90
5560;DHT22;2803;47.916;8.074;2023-06-19T07:38:28;25.80;99.90
5560;DHT22;2803;47.916;8.074;2023-06-19T07:40:56;25.70;99.90
5560;DHT22;2803;47.916;8.074;2023-06-19T07:43:23;25.70;99.90
5560;DHT22;2803;47.916;8.074;2023-06-19T07:45:50;26.20;99.90
5560;DHT22;2803;47.916;8.074;2023-06-19T07:48:16;26.40;99.90
5560;DHT22;2803;47.916;8.074;2023-06-19T07:50:43;26.50;99.90
5560;DHT22;2803;47.916;8.074;2023-06-19T07:53:10;26.70;99.90
5560;DHT22;2803;47.916;8.074;2023-06-19T07:55:36;26.90;99.90
5560;DHT22;2803;47.916;8.074;2023-06-19T07:58:04;27.00;99.90
5560;DHT22;2803;47.916;8.074;2023-06-19T08:00:31;27.00;99.90
5560;DHT22;2803;47.916;8.074;2023-06-19T08:02:57;27.00;99.90
5560;DHT22;2803;47.916;8.074;2023-06-19T08:05:24;26.20;99.80
5560;DHT22;2803;47.916;8.074;2023-06-19T08:07:50;26.40;99.90
5560;DHT22;2803;47.916;8.074;2023-06-19T08:10:17;25.90;99.90
5560;DHT22;2803;47.916;8.074;2023-06-19T08:12:44;25.80;99.90
5560;DHT22;2803;47.916;8.074;2023-06-19T08:15:12;26.30;99.90
5560;DHT22;2803;47.916;8.074;2023-06-19T08:17:40;26.20;99.90
5560;DHT22;2803;47.916;8.074;2023-06-19T08:20:07;25.80;99.90
5560;DHT22;2803;47.916;8.074;2023-06-19T08:22:34;26.20;99.90
5560;DHT22;2803;47.916;8.074;2023-06-19T08:25:01;26.40;99.90
5560;DHT22;2803;47.916;8.074;2023-06-19T08:27:27;26.50;99.90
5560;DHT22;2803;47.916;8.074;2023-06-19T08:29:54;26.40;99.90
5560;DHT22;2803;47.916;8.074;2023-06-19T08:32:22;26.20;99.90
5560;DHT22;2803;47.916;8.074;2023-06-19T08:34:48;26.40;99.70
5560;DHT22;2803;47.916;8.074;2023-06-19T08:37:16;26.40;99.90
5560;DHT22;2803;47.916;8.074;2023-06-19T08:39:43;26.80;99.90
5560;DHT22;2803;47.916;8.074;2023-06-19T08:42:10;26.40;99.90
5560;DHT22;2803;47.916;8.074;2023-06-19T08:44:37;26.60;99.90
5560;DHT22;2803;47.916;8.074;2023-06-19T08:47:04;26.50;99.90
5560;DHT22;2803;47.916;8.074;2023-06-19T08:49:34;26.60;99.90
5560;DHT22;2803;47.916;8.074;2023-06-19T08:52:01;26.90;99.90
5560;DHT22;2803;47.916;8.074;2023-06-19T08:54:28;26.40;99.90
5560;DHT22;2803;47.916;8.074;2023-06-19T08:56:54;26.70;99.90
5560;DHT22;2803;47.916;8.074;2023-06-19T08:59:21;26.60;99.90
5560;DHT22;2803;47.916;8.074;2023-06-19T09:01:49;27.00;99.90
5560;DHT22;2803;47.916;8.074;2023-06-19T09:04:18;26.70;99.90
5560;DHT22;2803;47.916;8.074;2023-06-19T09:06:49;26.80;99.90
5560;DHT22;2803;47.916;8.074;2023-06-19T09:09:16;26.50;99.90
5560;DHT22;2803;47.916;8.074;2023-06-19T09:11:43;26.50;99.90
5560;DHT22;2803;47.916;8.074;2023-06-19T09:14:10;26.20;99.90
5560;DHT22;2803;47.916;8.074;2023-06-19T09:16:38;26.20;99.90
5560;DHT22;2803;47.916;8.074;2023-06-19T09:19:06;25.60;99.90
5560;DHT22;2803;47.916;8.074;2023-06-19T09:21:35;26.10;99.90
5560;DHT22;2803;47.916;8.074;2023-06-19T09:24:06;26.40;99.90
5560;DHT22;2803;47.916;8.074;2023-06-19T09:26:34;26.10;99.90
5560;DHT22;2803;47.916;8.074;2023-06-19T09:29:15;26.40;99.90
5560;DHT22;2803;47.916;8.074;2023-06-19T09:31:43;26.70;99.90
5560;DHT22;2803;47.916;8.074;2023-06-19T09:34:13;27.00;99.90
5560;DHT22;2803;47.916;8.074;2023-06-19T09:36:40;27.30;99.90
5560;DHT22;2803;47.916;8.074;2023-06-19T09:39:11;27.10;99.90
5560;DHT22;2803;47.916;8.074;2023-06-19T09:41:39;27.00;99.90
5560;DHT22;2803;47.916;8.074;2023-06-19T09:44:07;27.10;99.90
5560;DHT22;2803;47.916;8.074;2023-06-19T09:46:40;27.00;99.90
5560;DHT22;2803;47.916;8.074;2023-06-19T09:49:11;27.20;99.90
5560;DHT22;2803;47.916;8.074;2023-06-19T09:51:41;27.20;99.90
5560;DHT22;2803;47.916;8.074;2023-06-19T09:54:10;27.20;99.80
5560;DHT22;2803;47.916;8.074;2023-06-19T09:56:37;27.80;99.70
5560;DHT22;2803;47.916;8.074;2023-06-19T09:59:06;27.60;99.90
5560;DHT22;2803;47.916;8.074;2023-06-19T10:01:35;27.70;99.50
5560;DHT22;2803;47.916;8.074;2023-06-19T10:04:04;28.30;99.40
5560;DHT22;2803;47.916;8.074;2023-06-19T10:06:31;28.60;98.70
5560;DHT22;2803;47.916;8.074;2023-06-19T10:09:06;28.20;97.80
5560;DHT22;2803;47.916;8.074;2023-06-19T10:11:46;28.00;98.00
5560;DHT22;2803;47.916;8.074;2023-06-19T10:14:12;28.20;96.90
5560;DHT22;2803;47.916;8.074;2023-06-19T10:16:40;27.90;96.80
5560;DHT22;2803;47.916;8.074;2023-06-19T10:19:13;28.40;97.00
5560;DHT22;2803;47.916;8.074;2023-06-19T10:21:48;28.50;95.10
5560;DHT22;2803;47.916;8.074;2023-06-19T10:24:16;28.30;94.50
5560;DHT22;2803;47.916;8.074;2023-06-19T10:26:55;28.30;94.60
5560;DHT22;2803;47.916;8.074;2023-06-19T10:29:22;28.80;94.40
5560;DHT22;2803;47.916;8.074;2023-06-19T10:31:50;29.40;94.10
5560;DHT22;2803;47.916;8.074;2023-06-19T10:34:16;29.30;93.80
5560;DHT22;2803;47.916;8.074;2023-06-19T10:36:43;29.40;92.30
5560;DHT22;2803;47.916;8.074;2023-06-19T10:39:10;29.60;92.40
5560;DHT22;2803;47.916;8.074;2023-06-19T10:41:40;29.80;91.70
5560;DHT22;2803;47.916;8.074;2023-06-19T10:44:08;30.40;91.60
5560;DHT22;2803;47.916;8.074;2023-06-19T10:46:38;30.30;90.20
5560;DHT22;2803;47.916;8.074;2023-06-19T10:49:07;29.80;90.20
5560;DHT22;2803;47.916;8.074;2023-06-19T10:51:36;30.10;90.40
5560;DHT22;2803;47.916;8.074;2023-06-19T10:54:04;29.90;89.10
5560;DHT22;2803;47.916;8.074;2023-06-19T10:56:30;30.30;89.50
5560;DHT22;2803;47.916;8.074;2023-06-19T10:58:58;29.90;88.40
5560;DHT22;2803;47.916;8.074;2023-06-19T11:01:33;30.70;88.30
5560;DHT22;2803;47.916;8.074;2023-06-19T11:04:02;31.40;85.20
5560;DHT22;2803;47.916;8.074;2023-06-19T11:06:30;31.60;83.80
5560;DHT22;2803;47.916;8.074;2023-06-19T11:08:56;31.60;81.70
5560;DHT22;2803;47.916;8.074;2023-06-19T11:11:35;31.40;82.10
5560;DHT22;2803;47.916;8.074;2023-06-19T11:14:01;30.70;81.70
5560;DHT22;2803;47.916;8.074;2023-06-19T11:16:28;30.20;82.80
5560;DHT22;2803;47.916;8.074;2023-06-19T11:18:57;30.40;82.90
5560;DHT22;2803;47.916;8.074;2023-06-19T11:21:29;30.40;81.30
5560;DHT22;2803;47.916;8.074;2023-06-19T11:23:58;30.60;79.90
5560;DHT22;2803;47.916;8.074;2023-06-19T11:26:26;30.60;81.10
5560;DHT22;2803;47.916;8.074;2023-06-19T11:28:52;30.30;79.20
5560;DHT22;2803;47.916;8.074;2023-06-19T11:31:25;30.00;80.80
5560;DHT22;2803;47.916;8.074;2023-06-19T11:33:57;30.50;79.10
5560;DHT22;2803;47.916;8.074;2023-06-19T11:36:24;30.60;78.70
5560;DHT22;2803;47.916;8.074;2023-06-19T11:38:51;30.70;77.50
5560;DHT22;2803;47.916;8.074;2023-06-19T11:41:25;30.50;77.80
5560;DHT22;2803;47.916;8.074;2023-06-19T11:43:58;30.90;79.80
5560;DHT22;2803;47.916;8.074;2023-06-19T11:46:29;31.00;78.20
5560;DHT22;2803;47.916;8.074;2023-06-19T11:49:07;30.10;77.90
5560;DHT22;2803;47.916;8.074;2023-06-19T11:51:34;29.60;78.70
5560;DHT22;2803;47.916;8.074;2023-06-19T11:54:01;29.50;78.70
5560;DHT22;2803;47.916;8.074;2023-06-19T11:56:28;29.80;79.20
5560;DHT22;2803;47.916;8.074;2023-06-19T11:58:55;30.10;79.80
5560;DHT22;2803;47.916;8.074;2023-06-19T12:01:22;30.60;77.80
5560;DHT22;2803;47.916;8.074;2023-06-19T12:03:48;31.40;78.00
5560;DHT22;2803;47.916;8.074;2023-06-19T12:06:17;32.10;74.60
5560;DHT22;2803;47.916;8.074;2023-06-19T12:08:44;31.80;73.60
5560;DHT22;2803;47.916;8.074;2023-06-19T12:11:10;32.30;75.20
5560;DHT22;2803;47.916;8.074;2023-06-19T12:13:39;32.70;73.40
5560;DHT22;2803;47.916;8.074;2023-06-19T12:16:06;33.40;72.10
5560;DHT22;2803;47.916;8.074;2023-06-19T12:18:32;33.20;70.30
5560;DHT22;2803;47.916;8.074;2023-06-19T12:21:00;33.30;71.30
5560;DHT22;2803;47.916;8.074;2023-06-19T12:23:28;32.80;70.30
5560;DHT22;2803;47.916;8.074;2023-06-19T12:25:54;32.80;70.70
5560;DHT22;2803;47.916;8.074;2023-06-19T12:28:21;32.10;70.20
5560;DHT22;2803;47.916;8.074;2023-06-19T12:30:48;32.50;71.20
5560;DHT22;2803;47.916;8.074;2023-06-19T12:33:16;32.80;70.40
5560;DHT22;2803;47.916;8.074;2023-06-19T12:35:44;33.00;71.70
5560;DHT22;2803;47.916;8.074;2023-06-19T12:38:11;32.50;71.30
5560;DHT22;2803;47.916;8.074;2023-06-19T12:40:39;32.00;73.00
5560;DHT22;2803;47.916;8.074;2023-06-19T12:43:06;32.00;74.70
5560;DHT22;2803;47.916;8.074;2023-06-19T12:45:33;31.70;73.70
5560;DHT22;2803;47.916;8.074;2023-06-19T12:48:00;30.90;74.90
5560;DHT22;2803;47.916;8.074;2023-06-19T12:50:26;30.40;75.30
5560;DHT22;2803;47.916;8.074;2023-06-19T12:52:53;30.40;75.70
5560;DHT22;2803;47.916;8.074;2023-06-19T12:55:20;30.30;77.80
5560;DHT22;2803;47.916;8.074;2023-06-19T12:57:47;30.10;77.00
5560;DHT22;2803;47.916;8.074;2023-06-19T13:00:14;30.50;76.30
5560;DHT22;2803;47.916;8.074;2023-06-19T13:02:41;30.90;75.00
5560;DHT22;2803;47.916;8.074;2023-06-19T13:05:09;30.80;75.30
5560;DHT22;2803;47.916;8.074;2023-06-19T13:07:36;30.60;75.60
5560;DHT22;2803;47.916;8.074;2023-06-19T13:10:03;30.20;76.00
5560;DHT22;2803;47.916;8.074;2023-06-19T13:12:31;29.90;76.80
5560;DHT22;2803;47.916;8.074;2023-06-19T13:14:59;29.80;77.00
5560;DHT22;2803;47.916;8.074;2023-06-19T13:17:26;29.90;76.90
5560;DHT22;2803;47.916;8.074;2023-06-19T13:19:52;29.50;77.10
5560;DHT22;2803;47.916;8.074;2023-06-19T13:22:19;29.40;78.00
5560;DHT22;2803;47.916;8.074;2023-06-19T13:24:46;29.30;79.00
5560;DHT22;2803;47.916;8.074;2023-06-19T13:27:13;29.40;80.10
5560;DHT22;2803;47.916;8.074;2023-06-19T13:29:40;29.50;79.60
5560;DHT22;2803;47.916;8.074;2023-06-19T13:32:08;29.50;80.00
5560;DHT22;2803;47.916;8.074;2023-06-19T13:34:34;29.20;80.10
5560;DHT22;2803;47.916;8.074;2023-06-19T13:37:01;28.80;80.80
5560;DHT22;2803;47.916;8.074;2023-06-19T13:39:28;28.60;81.50
5560;DHT22;2803;47.916;8.074;2023-06-19T13:41:55;28.70;81.90
5560;DHT22;2803;47.916;8.074;2023-06-19T13:44:26;28.70;81.30
5560;DHT22;2803;47.916;8.074;2023-06-19T13:46:53;28.60;82.10
5560;DHT22;2803;47.916;8.074;2023-06-19T13:49:21;28.40;82.40
5560;DHT22;2803;47.916;8.074;2023-06-19T13:51:48;28.60;83.30
5560;DHT22;2803;47.916;8.074;2023-06-19T13:54:16;28.70;82.70
5560;DHT22;2803;47.916;8.074;2023-06-19T13:56:43;28.70;82.90
5560;DHT22;2803;47.916;8.074;2023-06-19T13:59:09;28.90;82.40
5560;DHT22;2803;47.916;8.074;2023-06-19T14:01:36;29.30;82.20
5560;DHT22;2803;47.916;8.074;2023-06-19T14:04:03;29.70;80.20
5560;DHT22;2803;47.916;8.074;2023-06-19T14:06:31;30.40;80.30
5560;DHT22;2803;47.916;8.074;2023-06-19T14:08:57;31.20;77.50
5560;DHT22;2803;47.916;8.074;2023-06-19T14:11:24;31.70;76.20
5560;DHT22;2803;47.916;8.074;2023-06-19T14:13:51;32.00;77.00
5560;DHT22;2803;47.916;8.074;2023-06-19T14:16:17;32.70;76.10
5560;DHT22;2803;47.916;8.074;2023-06-19T14:18:44;33.20;75.60
5560;DHT22;2803;47.916;8.074;2023-06-19T14:21:11;33.60;73.20
5560;DHT22;2803;47.916;8.074;2023-06-19T14:23:39;33.90;72.50
5560;DHT22;2803;47.916;8.074;2023-06-19T14:26:08;33.80;70.10
5560;DHT22;2803;47.916;8.074;2023-06-19T14:28:36;33.30;71.60
5560;DHT22;2803;47.916;8.074;2023-06-19T14:31:03;32.40;72.00
5560;DHT22;2803;47.916;8.074;2023-06-19T14:33:30;32.00;73.40
5560;DHT22;2803;47.916;8.074;2023-06-19T14:35:58;31.40;74.50
5560;DHT22;2803;47.916;8.074;2023-06-19T14:38:25;31.10;76.50
5560;DHT22;2803;47.916;8.074;2023-06-19T14:40:58;30.60;76.20
5560;DHT22;2803;47.916;8.074;2023-06-19T14:43:24;30.70;78.50
5560;DHT22;2803;47.916;8.074;2023-06-19T14:45:51;30.70;76.30
5560;DHT22;2803;47.916;8.074;2023-06-19T14:48:18;30.40;77.00
5560;DHT22;2803;47.916;8.074;2023-06-19T14:50:44;30.20;78.00
5560;DHT22;2803;47.916;8.074;2023-06-19T14:53:11;29.90;77.80
5560;DHT22;2803;47.916;8.074;2023-06-19T14:55:38;30.30;78.20
5560;DHT22;2803;47.916;8.074;2023-06-19T14:58:10;30.30;78.90
5560;DHT22;2803;47.916;8.074;2023-06-19T15:00:36;30.30;77.70
5560;DHT22;2803;47.916;8.074;2023-06-19T15:03:04;30.00;77.70
5560;DHT22;2803;47.916;8.074;2023-06-19T15:05:32;29.80;78.60
5560;DHT22;2803;47.916;8.074;2023-06-19T15:07:59;29.60;79.50
5560;DHT22;2803;47.916;8.074;2023-06-19T15:10:26;30.10;80.30
5560;DHT22;2803;47.916;8.074;2023-06-19T15:12:53;30.30;78.70
5560;DHT22;2803;47.916;8.074;2023-06-19T15:15:21;30.10;78.70
5560;DHT22;2803;47.916;8.074;2023-06-19T15:17:48;30.40;79.00
5560;DHT22;2803;47.916;8.074;2023-06-19T15:20:14;29.80;79.00
5560;DHT22;2803;47.916;8.074;2023-06-19T15:22:43;29.90;80.60
5560;DHT22;2803;47.916;8.074;2023-06-19T15:25:10;30.10;79.40
5560;DHT22;2803;47.916;8.074;2023-06-19T15:27:36;30.40;79.20
5560;DHT22;2803;47.916;8.074;2023-06-19T15:30:04;30.40;78.10
5560;DHT22;2803;47.916;8.074;2023-06-19T15:32:32;30.30;78.70
5560;DHT22;2803;47.916;8.074;2023-06-19T15:34:59;30.30;79.40
5560;DHT22;2803;47.916;8.074;2023-06-19T15:37:26;30.40;80.10
5560;DHT22;2803;47.916;8.074;2023-06-19T15:39:53;30.20;78.70
5560;DHT22;2803;47.916;8.074;2023-06-19T15:42:20;30.70;79.40
5560;DHT22;2803;47.916;8.074;2023-06-19T15:44:47;30.20;78.60
5560;DHT22;2803;47.916;8.074;2023-06-19T15:47:14;30.50;78.00
5560;DHT22;2803;47.916;8.074;2023-06-19T15:49:42;30.60;78.00
5560;DHT22;2803;47.916;8.074;2023-06-19T15:52:09;30.50;77.90
5560;DHT22;2803;47.916;8.074;2023-06-19T15:54:35;30.60;78.20
5560;DHT22;2803;47.916;8.074;2023-06-19T15:57:03;30.20;78.60
5560;DHT22;2803;47.916;8.074;2023-06-19T15:59:30;30.50;80.60
5560;DHT22;2803;47.916;8.074;2023-06-19T16:01:56;30.70;80.60
5560;DHT22;2803;47.916;8.074;2023-06-19T16:04:23;30.70;80.90